Time;durP1;ratioP1;P1;durP2;ratioP2;P2;SDS_P1;SDS_P2;PMS_P1;PMS_P2;Temp;Humidity;BMP_temperature;BMP_pressure;BME280_temperature;BME280_humidity;BME280_pressure;Samples;Min_cycle;Max_cycle;Signal;HPM_P1;HPM_P2
2021/05/11 00:00:36;;;;;;;9.35;6.28;;;;;;;10.04;52.81;100087.72;1764982;81;21162;-41
2021/05/11 00:03:05;;;;;;;10.75;6.03;;;;;;;9.99;52.21;100083.09;1765137;81;21984;-41
2021/05/11 00:05:33;;;;;;;13.35;6.40;;;;;;;9.96;52.02;100081.86;1764958;81;21169;-41
2021/05/11 00:08:02;;;;;;;9.03;6.08;;;;;;;9.93;51.67;100079.01;1765165;81;21149;-41
2021/05/11 00:10:30;;;;;;;8.78;6.03;;;;;;;9.90;51.28;100075.07;1764905;81;23519;-41
2021/05/11 00:12:58;;;;;;;11.83;6.47;;;;;;;9.86;51.67;100080.14;1765021;81;21125;-41
2021/05/11 00:15:26;;;;;;;12.03;7.58;;;;;;;9.85;51.32;100080.70;1765428;80;21023;-40
2021/05/11 00:17:54;;;;;;;10.25;6.50;;;;;;;9.84;50.84;100082.39;1789512;80;21152;-40
2021/05/11 00:20:22;;;;;;;10.43;6.50;;;;;;;9.81;50.77;100073.03;1762903;81;21146;-41
2021/05/11 00:22:50;;;;;;;9.93;6.50;;;;;;;9.82;50.40;100071.12;1789545;80;21421;-41
2021/05/11 00:25:18;;;;;;;11.30;7.33;;;;;;;9.82;49.54;100069.20;1762516;81;21134;-41
2021/05/11 00:27:46;;;;;;;14.45;8.60;;;;;;;9.82;49.53;100071.91;1782539;80;21137;-41
2021/05/11 00:30:16;;;;;;;14.33;8.18;;;;;;;9.83;49.45;100064.55;1731927;82;21158;-40
2021/05/11 00:32:44;;;;;;;11.65;7.53;;;;;;;9.82;49.14;100072.47;1757991;81;21129;-40
2021/05/11 00:35:12;;;;;;;12.82;8.13;;;;;;;9.79;49.52;100071.21;1731930;81;21584;-41
2021/05/11 00:37:40;;;;;;;12.80;8.28;;;;;;;9.78;49.43;100073.69;1762724;81;21129;-41
2021/05/11 00:40:10;;;;;;;15.65;7.22;;;;;;;9.78;50.03;100066.16;1730891;82;21171;-40
2021/05/11 00:42:39;;;;;;;10.60;7.03;;;;;;;9.76;50.36;100063.77;1762892;81;21147;-40
2021/05/11 00:45:08;;;;;;;11.55;7.20;;;;;;;9.72;50.69;100060.16;1731007;82;21438;-41
2021/05/11 00:47:36;;;;;;;10.38;7.42;;;;;;;9.71;51.16;100057.22;1762677;81;21193;-40
2021/05/11 00:50:07;;;;;;;9.98;6.78;;;;;;;9.67;51.65;100056.31;1729502;83;21708;-41
2021/05/11 00:52:35;;;;;;;11.03;6.62;;;;;;;9.62;52.56;100055.17;1756183;81;21216;-40
2021/05/11 00:55:04;;;;;;;11.38;6.67;;;;;;;9.57;52.76;100060.25;1730357;82;20987;-41
2021/05/11 00:57:33;;;;;;;10.80;6.60;;;;;;;9.51;53.90;100049.95;1730812;81;21102;-41
2021/05/11 01:00:02;;;;;;;8.05;6.17;;;;;;;9.43;53.53;100045.44;1730477;82;21593;-41
2021/05/11 01:02:31;;;;;;;11.18;6.42;;;;;;;9.34;52.88;100044.18;1756087;81;21003;-41
2021/05/11 01:04:59;;;;;;;8.28;5.45;;;;;;;9.32;52.39;100049.12;1726064;83;21165;-40
2021/05/11 01:07:28;;;;;;;10.20;5.72;;;;;;;9.31;51.35;100044.03;1730422;82;21134;-40
2021/05/11 01:09:57;;;;;;;13.80;6.35;;;;;;;9.31;50.82;100046.74;1756150;81;21133;-41
2021/05/11 01:12:25;;;;;;;8.75;5.50;;;;;;;9.32;50.97;100040.22;1730504;82;21341;-40
2021/05/11 01:14:54;;;;;;;9.03;5.22;;;;;;;9.31;50.52;100038.62;1756267;80;21157;-40
2021/05/11 01:17:29;;;;;;;9.63;5.85;;;;;;;9.28;49.44;100035.25;1758288;80;21129;-41
2021/05/11 01:19:58;;;;;;;10.72;6.25;;;;;;;9.27;50.10;100036.36;1726418;83;21639;-40
2021/05/11 01:25:26;;;;;;;11.63;6.90;;;;;;;9.23;50.08;100038.16;1735438;81;21309;-40
2021/05/11 01:28:00;;;;;;;11.22;6.83;;;;;;;9.18;50.00;100036.45;1757824;81;21196;-40
2021/05/11 01:43:53;;;;;;;11.48;6.85;;;;;;;9.14;50.61;100033.63;1787709;80;21151;-40
2021/05/11 01:49:34;;;;;;;9.00;6.62;;;;;;;8.99;52.52;100038.86;1786564;79;21182;-41
2021/05/11 01:52:11;;;;;;;10.58;6.42;;;;;;;8.98;52.85;100041.34;1774155;80;22193;-41
2021/05/11 02:18:03;;;;;;;9.90;6.28;;;;;;;8.73;54.38;100032.31;1781988;79;21396;-41
2021/05/11 02:24:29;;;;;;;9.45;6.15;;;;;;;8.71;54.15;100030.52;1783817;80;21048;-41
2021/05/11 02:26:57;;;;;;;9.75;6.50;;;;;;;8.70;54.38;100029.73;1783759;80;21163;-41
2021/05/11 02:29:25;;;;;;;11.65;6.25;;;;;;;8.69;54.41;100032.75;1783852;80;21169;-42
2021/05/11 02:31:53;;;;;;;10.05;5.50;;;;;;;8.70;54.37;100036.48;1783854;80;23500;-41
2021/05/11 02:34:21;;;;;;;9.00;5.70;;;;;;;8.72;54.16;100033.43;1783824;80;21624;-42
2021/05/11 02:36:49;;;;;;;9.45;5.97;;;;;;;8.73;54.01;100040.42;1783889;80;21176;-41
2021/05/11 02:39:18;;;;;;;10.65;6.37;;;;;;;8.73;53.85;100039.08;1783889;80;21082;-42
2021/05/11 02:41:46;;;;;;;11.50;6.25;;;;;;;8.76;53.48;100040.34;1783905;80;20996;-41
2021/05/11 02:44:17;;;;;;;8.53;5.85;;;;;;;8.77;53.20;100035.14;1783915;80;21696;-41
2021/05/11 04:06:56;;;;;;;9.63;5.12;;;;;;;9.84;53.15;100021.45;1742096;81;21190;-41
2021/05/11 04:09:38;;;;;;;7.40;4.87;;;;;;;10.00;52.92;100023.72;1809331;78;22753;-41
2021/05/11 04:17:32;;;;;;;6.62;5.03;;;;;;;10.74;51.69;100010.30;1809340;78;22687;-41
2021/05/11 04:20:11;;;;;;;6.28;4.15;;;;;;;10.94;51.01;100016.67;1879129;76;22035;-41
2021/05/11 04:22:57;;;;;;;6.60;3.95;;;;;;;10.86;50.96;100015.11;1846879;77;20960;-41
2021/05/11 04:25:32;;;;;;;6.95;4.03;;;;;;;10.89;50.64;100021.19;1809720;78;22563;-41
2021/05/11 04:28:08;;;;;;;5.62;3.70;;;;;;;10.99;50.24;100017.78;1821468;78;22720;-41
2021/05/11 04:30:54;;;;;;;6.10;3.33;;;;;;;11.06;50.35;100024.18;1776119;80;21196;-41
2021/05/11 04:33:29;;;;;;;8.85;3.40;;;;;;;11.21;50.19;100010.43;1840978;78;23413;-41
2021/05/11 04:36:07;;;;;;;6.30;3.15;;;;;;;11.33;49.17;100005.70;1808326;78;22698;-41
2021/05/11 04:38:54;;;;;;;8.25;3.30;;;;;;;11.44;49.29;100005.98;1784093;80;21038;-41
2021/05/11 04:41:29;;;;;;;5.97;3.12;;;;;;;11.63;49.01;100004.73;1831555;78;23369;-41
2021/05/11 04:44:05;;;;;;;6.47;3.08;;;;;;;11.79;49.46;100012.12;1835763;78;22677;-41
2021/05/11 04:46:49;;;;;;;5.30;3.67;;;;;;;11.93;49.02;100020.61;1787810;78;27831;-41
2021/05/11 04:49:31;;;;;;;4.75;3.52;;;;;;;12.36;48.42;100019.09;1752641;80;21150;-41
2021/05/11 04:52:08;;;;;;;5.03;3.52;;;;;;;12.68;47.62;100021.16;1802825;78;20944;-41
2021/05/11 04:54:46;;;;;;;4.92;3.40;;;;;;;12.70;47.72;100016.70;1808580;78;22705;-41
2021/05/11 04:57:24;;;;;;;6.03;3.40;;;;;;;12.78;47.63;100022.52;1835811;78;22840;-41
2021/05/11 05:00:01;;;;;;;5.95;3.60;;;;;;;12.85;48.09;100018.56;1888841;76;22691;-41
2021/05/11 05:02:39;;;;;;;8.45;3.72;;;;;;;12.92;47.54;100014.64;1808601;78;22844;-41
2021/05/11 05:05:15;;;;;;;5.45;3.22;;;;;;;13.01;47.61;100015.20;1855635;76;22754;-41
2021/05/11 05:07:50;;;;;;;5.03;2.98;;;;;;;13.12;46.89;100019.52;1796364;78;27884;-41
2021/05/11 05:10:36;;;;;;;5.37;3.00;;;;;;;13.53;45.17;100026.09;1783975;80;21664;-41
2021/05/11 05:13:21;;;;;;;6.03;2.60;;;;;;;13.81;43.96;100027.36;1831433;78;22697;-42
2021/05/11 05:15:59;;;;;;;4.30;2.90;;;;;;;13.82;43.54;100023.49;1792588;78;27865;-41
2021/05/11 05:18:45;;;;;;;5.00;2.72;;;;;;;14.23;42.95;100021.02;1784032;80;21710;-41
2021/05/11 05:21:20;;;;;;;3.92;2.60;;;;;;;14.48;42.22;100018.64;1828977;78;22783;-41
2021/05/11 05:24:15;;;;;;;3.95;2.72;;;;;;;14.46;41.55;100026.42;1792997;78;27907;-41
2021/05/11 05:29:39;;;;;;;4.10;2.40;;;;;;;14.92;40.81;100029.16;1808406;78;22729;-42
2021/05/11 05:32:17;;;;;;;3.60;2.50;;;;;;;14.90;40.35;100023.30;1828085;78;22785;-41
2021/05/11 05:34:58;;;;;;;3.25;2.50;;;;;;;14.95;39.35;100022.98;1797868;78;22763;-42
2021/05/11 05:37:35;;;;;;;3.27;2.45;;;;;;;15.02;39.34;100023.04;1809743;78;21514;-42
2021/05/11 05:40:19;;;;;;;6.75;2.10;;;;;;;15.10;39.41;100020.59;1835856;78;22785;-41
2021/05/11 05:43:03;;;;;;;6.05;2.65;;;;;;;15.14;39.16;100013.24;1808163;79;21027;-41
2021/05/11 05:45:38;;;;;;;3.75;2.27;;;;;;;15.28;38.29;100009.08;1809317;78;23656;-41
2021/05/11 05:48:16;;;;;;;2.45;1.85;;;;;;;15.35;38.77;100007.19;1836570;76;23346;-41
2021/05/11 05:53:40;;;;;;;3.27;2.08;;;;;;;15.52;37.29;100009.36;1855898;76;22692;-41
2021/05/11 05:56:25;;;;;;;2.77;2.00;;;;;;;15.55;37.02;100003.70;1846475;77;21011;-41
2021/05/11 05:59:03;;;;;;;6.08;2.10;;;;;;;15.67;36.10;99999.34;1835821;78;22689;-41
2021/05/11 06:01:40;;;;;;;3.12;2.25;;;;;;;15.75;35.50;99992.75;1793401;78;27941;-41
2021/05/11 06:04:21;;;;;;;2.47;1.82;;;;;;;16.26;34.71;99989.22;1808844;78;22889;-41
2021/05/11 06:07:07;;;;;;;3.42;1.90;;;;;;;16.37;34.38;99988.67;1778056;80;21018;-41
2021/05/11 06:09:45;;;;;;;3.90;2.10;;;;;;;16.36;34.79;99988.49;1835860;78;22678;-41
2021/05/11 06:12:31;;;;;;;2.92;2.20;;;;;;;16.41;33.08;99983.41;1831395;78;22696;-41
2021/05/11 06:17:43;;;;;;;4.20;2.25;;;;;;;16.53;32.26;99974.89;1835860;78;22779;-41
2021/05/11 06:20:29;;;;;;;3.67;1.87;;;;;;;16.59;33.45;99981.39;1797269;79;21024;-41
2021/05/11 06:23:06;;;;;;;6.12;2.58;;;;;;;16.72;33.20;99982.61;1883568;76;20919;-42
2021/05/11 06:25:45;;;;;;;3.72;2.00;;;;;;;16.87;32.90;99977.39;1835766;78;22682;-41
2021/05/11 06:28:28;;;;;;;5.30;2.40;;;;;;;17.03;33.35;99981.16;1871261;76;22542;-41
2021/05/11 06:31:13;;;;;;;3.72;1.92;;;;;;;17.10;31.04;99971.58;1859699;77;21011;-41
2021/05/11 06:33:51;;;;;;;2.83;1.92;;;;;;;17.24;31.18;99975.12;1809260;78;22831;-41
2021/05/11 06:36:29;;;;;;;4.55;2.22;;;;;;;17.32;31.45;99973.98;1831360;78;22785;-42
2021/05/11 06:39:08;;;;;;;3.30;2.00;;;;;;;17.43;31.74;99967.73;1829090;78;22705;-41
2021/05/11 06:41:50;;;;;;;3.20;2.00;;;;;;;17.54;30.89;99956.95;1840884;78;22687;-41
2021/05/11 06:50:26;;;;;;;3.50;2.00;;;;;;;18.25;29.11;99963.75;1793535;78;27925;-41
2021/05/11 06:53:11;;;;;;;3.37;1.67;;;;;;;18.71;29.36;99971.88;1783969;80;20991;-41
2021/05/11 06:55:46;;;;;;;3.37;1.90;;;;;;;18.76;28.34;99959.09;1808086;78;22809;-41
2021/05/11 06:58:23;;;;;;;3.95;2.00;;;;;;;18.63;29.12;99964.27;1808261;78;22693;-41
2021/05/11 07:01:09;;;;;;;2.52;1.70;;;;;;;18.59;27.80;99973.67;1783876;80;21050;-41
2021/05/11 07:03:45;;;;;;;3.72;2.58;;;;;;;18.59;28.06;99975.83;1829115;78;23357;-41
2021/05/11 07:06:20;;;;;;;2.85;2.05;;;;;;;18.61;29.34;99976.23;1809101;78;22684;-41
2021/05/11 07:09:04;;;;;;;2.08;1.70;;;;;;;18.72;28.00;99975.41;1809921;78;22685;-42
2021/05/11 07:14:24;;;;;;;2.85;1.55;;;;;;;18.98;28.85;99977.61;1808254;78;22884;-42
2021/05/11 07:17:02;;;;;;;4.12;1.85;;;;;;;19.11;28.69;99967.75;1814248;78;23294;-42
2021/05/11 07:19:48;;;;;;;2.67;1.75;;;;;;;19.16;27.62;99978.31;1782878;79;20992;-41
2021/05/11 07:22:27;;;;;;;2.08;1.60;;;;;;;19.22;27.54;99980.81;1835829;78;22850;-41
2021/05/11 07:25:08;;;;;;;4.05;1.62;;;;;;;19.21;26.97;99973.77;1809345;78;22766;-41
2021/05/11 07:30:35;;;;;;;3.47;2.00;;;;;;;19.27;26.81;99961.14;1854194;76;22728;-41
2021/05/11 07:33:10;;;;;;;1.77;1.60;;;;;;;19.31;26.53;99963.30;1828402;78;22791;-41
2021/05/11 07:35:48;;;;;;;4.45;1.70;;;;;;;19.44;27.78;99961.66;1835881;78;22851;-42
2021/05/11 07:38:24;;;;;;;2.85;2.08;;;;;;;19.62;26.96;99954.63;1808775;78;22841;-42
2021/05/11 07:41:13;;;;;;;4.00;1.90;;;;;;;19.72;27.36;99960.64;1784094;80;20991;-42
2021/05/11 07:43:54;;;;;;;4.33;1.80;;;;;;;19.90;26.23;99959.09;1835861;78;22682;-41
2021/05/11 08:09:48;;;;;;;3.35;1.80;;;;;;;20.08;26.55;99928.66;1735028;82;21356;-42
2021/05/11 08:29:28;;;;;;;1.52;1.25;;;;;;;21.10;26.27;99884.65;1808174;78;22715;-42
2021/05/11 08:32:15;;;;;;;2.67;1.50;;;;;;;21.24;25.04;99878.16;1784041;80;21027;-42
2021/05/11 08:34:53;;;;;;;3.25;1.62;;;;;;;21.41;25.35;99874.91;1840861;78;22678;-42
2021/05/11 08:37:36;;;;;;;3.42;1.50;;;;;;;21.46;25.45;99875.80;1828355;78;23146;-42
2021/05/11 08:40:16;;;;;;;2.90;1.60;;;;;;;21.55;26.16;99873.28;1809749;78;22722;-42
2021/05/11 08:43:08;;;;;;;2.47;1.50;;;;;;;21.61;24.72;99866.08;1787279;80;21174;-42
2021/05/11 08:45:39;;;;;;;4.47;1.90;;;;;;;21.63;24.96;99857.58;1846793;76;22674;-41
2021/05/11 08:48:17;;;;;;;2.75;1.40;;;;;;;21.75;25.86;99863.66;1818918;78;22696;-41
2021/05/11 09:04:31;;;;;;;2.27;1.40;;;;;;;22.13;25.85;99855.25;1831480;78;23305;-42
2021/05/11 09:25:53;;;;;;;2.77;1.50;;;;;;;22.95;25.42;99841.22;1808645;78;22747;-42
2021/05/11 09:29:03;;;;;;;3.30;1.55;;;;;;;23.01;25.70;99839.33;1835964;78;22726;-42
2021/05/11 09:58:00;;;;;;;2.40;1.37;;;;;;;24.32;25.25;99809.53;1808893;78;22886;-42
2021/05/11 10:48:39;;;;;;;2.52;1.35;;;;;;;26.56;24.32;99754.76;1823834;78;23131;-42
2021/05/11 10:51:20;;;;;;;1.77;1.20;;;;;;;26.61;24.03;99749.98;1846767;76;22689;-42
2021/05/11 10:54:09;;;;;;;3.77;1.50;;;;;;;26.78;24.09;99748.47;1816739;79;20988;-42
2021/05/11 10:56:47;;;;;;;2.98;1.50;;;;;;;26.99;23.77;99744.84;1831543;78;22697;-42
2021/05/11 11:02:54;;;;;;;3.20;1.55;;;;;;;27.43;23.49;99750.91;1831548;78;22754;-42
2021/05/11 11:05:04;;;;;;;2.02;1.30;;;;;;;27.61;23.86;99750.91;1791475;79;21017;-42
2021/05/11 11:07:42;;;;;;;5.08;1.72;;;;;;;27.86;23.50;99742.83;1808890;78;23388;-42
2021/05/11 11:10:21;;;;;;;2.83;1.62;;;;;;;28.06;23.18;99748.66;1801723;78;22842;-42
2021/05/11 11:12:56;;;;;;;5.15;3.60;;;;;;;28.08;23.05;99744.77;1828825;78;22694;-42
2021/05/11 11:15:43;;;;;;;3.20;1.47;;;;;;;28.05;23.80;99743.55;1743418;81;21029;-43
2021/05/11 11:18:22;;;;;;;5.87;1.75;;;;;;;28.06;23.99;99743.09;1809478;77;22705;-43
2021/05/11 11:24:08;;;;;;;4.97;1.80;;;;;;;28.17;23.77;99734.26;1782739;78;27999;-42
2021/05/11 11:26:57;;;;;;;4.00;1.80;;;;;;;28.57;22.80;99729.72;1709738;83;21033;-43
2021/05/11 11:29:46;;;;;;;;;;;;;;;;;;;;;
2021/05/11 11:32:19;;;;;;;1.70;1.27;;;;;;;28.95;22.34;99710.27;1855632;75;22687;-42
2021/05/11 11:35:02;;;;;;;3.55;1.65;;;;;;;29.10;22.79;99703.96;1831530;78;22866;-42
2021/05/11 11:40:22;;;;;;;2.52;1.30;;;;;;;29.45;23.29;99696.55;1864131;74;22688;-42
2021/05/11 11:43:00;;;;;;;2.72;1.50;;;;;;;29.46;22.87;99700.12;1831823;78;22791;-42
2021/05/11 11:45:39;;;;;;;2.63;1.53;;;;;;;29.60;22.99;99691.75;1786736;78;27932;-42
2021/05/11 11:48:25;;;;;;;3.25;1.40;;;;;;;30.20;22.86;99684.27;1764071;80;21301;-43
2021/05/11 11:51:06;;;;;;;3.70;1.27;;;;;;;30.60;22.20;99686.98;1835920;78;22791;-43
2021/05/11 11:53:46;;;;;;;9.25;1.70;;;;;;;30.92;21.40;99680.92;1809108;78;23145;-43
2021/05/11 11:59:28;;;;;;;1.70;1.30;;;;;;;30.79;21.42;99678.45;1888916;76;22560;-43
2021/05/11 12:02:04;;;;;;;5.72;1.50;;;;;;;31.14;21.58;99675.59;1855279;76;23143;-43
2021/05/11 12:04:50;;;;;;;3.45;1.52;;;;;;;31.59;20.71;99676.08;1836337;77;21054;-43
2021/05/11 12:07:33;;;;;;;3.05;1.30;;;;;;;31.60;20.66;99667.81;1829030;78;22826;-43
2021/05/11 12:10:10;;;;;;;3.55;1.30;;;;;;;31.49;20.52;99663.61;1820950;78;22709;-43
2021/05/11 12:12:56;;;;;;;2.22;1.35;;;;;;;31.67;20.53;99664.55;1785997;79;21084;-43
2021/05/11 12:15:34;;;;;;;2.10;1.42;;;;;;;31.71;20.19;99663.72;1830656;76;22754;-43
2021/05/11 12:18:17;;;;;;;3.17;1.50;;;;;;;31.59;19.96;99660.66;1835319;78;22675;-43
2021/05/11 12:21:02;;;;;;;1.92;1.35;;;;;;;31.43;20.36;99657.18;1833903;76;22680;-43
2021/05/11 12:23:45;;;;;;;3.60;1.30;;;;;;;31.32;20.67;99654.27;1784239;80;21039;-43
2021/05/11 12:26:20;;;;;;;4.30;1.47;;;;;;;31.33;21.01;99650.20;1876900;76;22701;-43
2021/05/11 12:29:11;;;;;;;4.35;1.32;;;;;;;31.38;20.96;99646.69;1808508;78;22824;-43
2021/05/11 12:31:50;;;;;;;3.02;1.37;;;;;;;31.14;20.53;99640.59;1808298;78;22772;-43
2021/05/11 12:34:25;;;;;;;2.47;1.40;;;;;;;31.04;21.31;99637.80;1857023;76;22852;-43
2021/05/11 12:37:03;;;;;;;2.25;1.22;;;;;;;31.25;20.98;99637.91;1837133;78;22762;-43
2021/05/11 12:39:49;;;;;;;3.37;1.40;;;;;;;31.35;20.72;99635.08;1862270;74;22787;-43
2021/05/11 12:42:24;;;;;;;3.65;1.40;;;;;;;31.46;20.97;99627.41;1828085;78;22687;-43
2021/05/11 12:45:06;;;;;;;3.12;1.20;;;;;;;31.44;20.92;99626.50;1888124;76;22689;-43
2021/05/11 12:47:55;;;;;;;3.25;1.00;;;;;;;31.38;20.81;99631.91;1798490;78;23126;-43
2021/05/11 12:50:39;;;;;;;2.62;1.20;;;;;;;31.16;21.50;99634.50;1841451;76;22694;-43
2021/05/11 12:59:37;;;;;;;4.07;1.20;;;;;;;31.47;21.21;99626.90;1856664;76;28117;-43
2021/05/11 13:05:05;;;;;;;3.15;1.30;;;;;;;31.22;20.70;99617.89;1823177;78;22711;-43
2021/05/11 13:33:27;;;;;;;5.33;1.37;;;;;;;29.59;22.81;99617.56;1831236;78;22823;-43
2021/05/11 13:35:59;;;;;;;3.92;1.32;;;;;;;29.08;22.22;99605.97;1808631;78;22460;-43
2021/05/11 13:38:36;;;;;;;3.65;1.40;;;;;;;28.66;24.28;99608.30;1840691;78;23363;-43
2021/05/11 13:41:11;;;;;;;6.72;1.45;;;;;;;28.35;24.71;99596.76;1832989;78;22717;-43
2021/05/11 13:43:49;;;;;;;7.33;1.47;;;;;;;28.01;24.63;99598.78;1809277;78;22761;-42
2021/05/11 13:46:27;;;;;;;6.65;1.60;;;;;;;27.70;24.80;99599.69;1826739;78;22753;-42
2021/05/11 13:49:05;;;;;;;4.72;1.47;;;;;;;27.60;25.32;99598.95;1826893;78;22744;-43
2021/05/11 13:52:04;;;;;;;3.08;1.57;;;;;;;27.51;25.54;99587.84;1881174;75;22712;-43
2021/05/11 13:54:53;;;;;;;3.65;1.52;;;;;;;27.42;25.56;99587.06;1809127;78;22751;-42
2021/05/11 14:03:25;;;;;;;3.60;1.27;;;;;;;27.27;26.01;99579.99;1888599;76;22556;-42
2021/05/11 14:06:12;;;;;;;5.40;1.37;;;;;;;27.15;26.03;99576.17;1859407;77;21015;-42
2021/05/11 14:08:47;;;;;;;3.00;1.40;;;;;;;27.19;26.19;99568.42;1835763;78;22781;-43
2021/05/11 14:11:24;;;;;;;3.60;1.40;;;;;;;27.20;25.44;99563.02;1802411;78;21509;-43
2021/05/11 14:14:03;;;;;;;5.58;1.50;;;;;;;27.15;25.83;99563.64;1808423;78;22745;-43
2021/05/11 14:16:45;;;;;;;5.35;1.50;;;;;;;27.15;25.97;99558.08;1819934;78;22850;-42
2021/05/11 14:19:31;;;;;;;;;;;;;;;27.17;25.69;99562.54;1792806;79;21047;-43
2021/05/11 14:22:06;;;;;;;9.05;1.42;;;;;;;27.27;25.38;99561.13;1802690;78;22765;-43
2021/05/11 14:24:43;;;;;;;5.83;1.42;;;;;;;27.14;25.76;99545.39;1808155;78;23363;-43
2021/05/11 14:27:19;;;;;;;3.37;1.27;;;;;;;27.08;25.98;99547.25;1809476;78;22772;-42
2021/05/11 14:29:54;;;;;;;3.35;1.20;;;;;;;27.02;25.81;99544.94;1842302;76;22674;-43
2021/05/11 14:32:29;;;;;;;5.87;1.60;;;;;;;27.06;26.33;99542.77;1809484;78;22125;-42
2021/05/11 14:35:15;;;;;;;6.42;1.37;;;;;;;27.12;26.40;99542.91;1784007;80;21360;-43
2021/05/11 14:37:52;;;;;;;3.40;1.30;;;;;;;27.13;25.62;99547.24;1839861;76;38159;-42
2021/05/11 14:40:28;;;;;;;5.75;1.35;;;;;;;27.49;25.21;99547.80;1840108;78;20925;-42
2021/05/11 14:43:04;;;;;;;4.50;1.70;;;;;;;27.62;24.86;99544.95;1846722;76;22667;-43
2021/05/11 14:45:39;;;;;;;4.08;1.30;;;;;;;27.51;25.26;99531.38;1856411;75;23362;-43
2021/05/11 14:48:25;;;;;;;4.75;1.20;;;;;;;27.35;25.34;99537.30;1853829;77;21011;-43
2021/05/11 14:51:00;;;;;;;4.30;1.50;;;;;;;27.21;26.02;99531.13;1808947;78;23556;-42
2021/05/11 14:53:37;;;;;;;6.42;1.50;;;;;;;27.20;25.93;99537.19;1840655;78;22768;-42
2021/05/11 14:56:23;;;;;;;4.78;1.60;;;;;;;27.15;26.21;99535.81;1815284;79;21015;-42
2021/05/11 14:59:19;;;;;;;5.22;1.30;;;;;;;27.13;25.72;99535.49;1869223;75;22825;-43
2021/05/11 15:01:54;;;;;;;6.70;1.80;;;;;;;27.02;25.75;99531.03;1815927;78;27830;-42
2021/05/11 15:04:31;;;;;;;6.83;1.75;;;;;;;27.25;24.98;99521.98;1809137;78;22683;-42
2021/05/11 15:07:09;;;;;;;4.50;1.85;;;;;;;27.27;26.06;99536.06;1856306;76;22748;-43
2021/05/11 15:09:47;;;;;;;4.28;1.57;;;;;;;27.04;25.61;99534.13;1835853;78;22678;-42
2021/05/11 15:12:26;;;;;;;5.00;1.30;;;;;;;26.91;26.39;99533.54;1846239;76;22729;-43
2021/05/11 15:15:06;;;;;;;29.40;26.68;;;;;;;26.88;26.09;99531.67;1827647;78;22664;-42
2021/05/11 15:20:33;;;;;;;3.75;1.50;;;;;;;26.86;26.00;99524.43;1831089;78;22877;-42
2021/05/11 15:23:08;;;;;;;3.95;1.40;;;;;;;26.88;26.03;99530.28;1823521;78;22848;-42
2021/05/11 15:25:54;;;;;;;5.72;1.50;;;;;;;26.90;26.60;99530.60;1794187;79;21035;-43
2021/05/11 15:28:29;;;;;;;7.42;1.75;;;;;;;26.91;27.60;99531.38;1814299;78;23362;-42
2021/05/11 15:31:07;;;;;;;4.97;1.73;;;;;;;26.82;26.30;99526.55;1811383;78;29258;-42
2021/05/11 15:33:42;;;;;;;6.33;1.70;;;;;;;27.06;26.16;99532.28;1793087;78;28442;-43
2021/05/11 15:36:28;;;;;;;4.67;1.67;;;;;;;27.25;25.77;99533.77;1805928;79;20992;-43
2021/05/11 15:39:06;;;;;;;3.35;1.55;;;;;;;27.03;26.29;99527.02;1808189;78;22823;-42
2021/05/11 15:41:44;;;;;;;6.55;1.70;;;;;;;26.70;26.85;99530.28;1809265;78;22822;-43
2021/05/11 15:44:25;;;;;;;3.65;1.60;;;;;;;26.48;27.66;99526.25;1808530;78;22700;-42
2021/05/11 15:48:23;;;;;;;5.75;1.82;;;;;;;26.39;27.82;99521.47;1803773;79;21868;-42
2021/05/11 15:51:00;;;;;;;5.45;1.40;;;;;;;26.23;26.80;99520.41;1826726;78;22816;-43
2021/05/11 15:53:46;;;;;;;3.52;1.60;;;;;;;26.07;27.26;99527.59;1796501;79;21390;-42
2021/05/11 15:56:23;;;;;;;6.50;1.80;;;;;;;25.94;27.70;99517.23;1840490;78;22675;-43
2021/05/11 15:59:05;;;;;;;2.30;1.55;;;;;;;25.82;27.77;99515.34;1834003;78;22686;-42
2021/05/11 16:01:38;;;;;;;7.17;2.17;;;;;;;25.71;27.60;99517.77;1835568;78;23298;-42
2021/05/11 16:04:24;;;;;;;5.72;1.27;;;;;;;25.56;28.01;99514.81;1807786;79;21063;-42
2021/05/11 16:07:02;;;;;;;4.40;1.70;;;;;;;25.43;28.48;99517.66;1818580;78;22692;-42
2021/05/11 16:09:37;;;;;;;5.87;1.67;;;;;;;25.33;28.49;99518.06;1802277;78;23325;-42
2021/05/11 16:12:15;;;;;;;4.80;1.37;;;;;;;25.21;28.83;99512.78;1863934;76;22726;-42
2021/05/11 16:14:52;;;;;;;7.22;1.80;;;;;;;25.12;28.73;99512.73;1823842;76;29432;-42
2021/05/11 16:17:30;;;;;;;8.08;2.05;;;;;;;25.41;28.71;99509.02;1821745;78;22764;-42
2021/05/11 16:20:10;;;;;;;4.55;1.55;;;;;;;25.42;28.59;99503.61;1866137;74;22649;-42
2021/05/11 16:22:56;;;;;;;3.98;1.50;;;;;;;25.20;28.98;99512.62;1831645;77;20972;-42
2021/05/11 16:25:39;;;;;;;4.45;1.40;;;;;;;25.05;29.17;99515.16;1854793;76;22782;-42
2021/05/11 16:28:16;;;;;;;5.30;2.27;;;;;;;24.94;29.77;99514.77;1832685;78;22849;-43
2021/05/11 16:31:03;;;;;;;6.92;1.67;;;;;;;24.80;29.62;99517.27;1769847;81;21004;-43
2021/05/11 16:33:38;;;;;;;4.22;1.80;;;;;;;24.74;30.13;99507.36;1793198;78;27834;-42
2021/05/11 16:36:16;;;;;;;2.92;1.57;;;;;;;25.05;29.28;99508.83;1840864;78;22676;-43
2021/05/11 16:38:53;;;;;;;4.62;1.55;;;;;;;25.05;29.75;99514.38;1799082;78;20981;-42
2021/05/11 16:41:31;;;;;;;7.10;1.90;;;;;;;24.79;29.92;99512.94;1831392;78;23356;-43
2021/05/11 16:44:08;;;;;;;5.47;1.80;;;;;;;24.55;29.53;99515.39;1793995;78;28618;-42
2021/05/11 16:46:48;;;;;;;4.35;1.42;;;;;;;24.77;30.09;99520.95;1808596;78;22804;-42
2021/05/11 16:49:29;;;;;;;3.77;1.72;;;;;;;24.65;29.95;99512.84;1835044;78;23305;-42
2021/05/11 16:52:10;;;;;;;3.85;1.70;;;;;;;24.39;30.13;99515.58;1854590;76;22674;-42
2021/05/11 16:54:47;;;;;;;4.45;1.60;;;;;;;24.22;30.50;99513.57;1855042;76;22666;-42
2021/05/11 16:57:33;;;;;;;3.12;1.60;;;;;;;24.08;30.84;99512.03;1853712;77;20968;-42
2021/05/11 17:00:12;;;;;;;4.33;2.05;;;;;;;24.01;31.34;99507.36;1808268;78;22704;-42
2021/05/11 17:02:47;;;;;;;3.10;1.65;;;;;;;23.91;31.52;99507.10;1808992;78;22710;-42
2021/05/11 17:05:34;;;;;;;10.23;1.92;;;;;;;23.78;31.17;99505.11;1795148;78;21039;-42
2021/05/11 17:08:11;;;;;;;4.28;1.80;;;;;;;23.69;31.84;99505.63;1808036;78;22722;-42
2021/05/11 17:10:47;;;;;;;4.55;1.90;;;;;;;23.60;32.22;99504.14;1868303;76;23417;-42
2021/05/11 17:13:22;;;;;;;2.98;1.65;;;;;;;23.48;31.90;99498.76;1888793;76;22548;-42
2021/05/11 17:16:09;;;;;;;5.22;1.80;;;;;;;23.36;32.78;99502.28;1859613;77;21046;-42
2021/05/11 17:18:44;;;;;;;4.87;1.90;;;;;;;23.24;32.88;99494.73;1825240;78;28324;-42
2021/05/11 17:21:22;;;;;;;5.28;1.70;;;;;;;23.53;32.75;99494.05;1808412;77;21023;-42
2021/05/11 17:24:10;;;;;;;5.03;2.05;;;;;;;23.56;32.78;99495.95;1783918;80;21022;-42
2021/05/11 17:26:48;;;;;;;8.10;2.40;;;;;;;23.31;32.47;99498.08;1840910;78;22744;-42
2021/05/11 17:29:27;;;;;;;5.08;1.70;;;;;;;23.13;33.12;99501.22;1806634;78;22696;-42
2021/05/11 17:32:12;;;;;;;3.62;1.70;;;;;;;22.92;33.07;99502.02;1776274;80;21043;-42
2021/05/11 17:34:48;;;;;;;3.20;1.70;;;;;;;22.77;33.31;99500.87;1793966;78;27819;-42
2021/05/11 17:37:23;;;;;;;5.00;1.52;;;;;;;23.01;33.38;99499.20;1830279;78;22802;-42
2021/05/11 17:39:58;;;;;;;5.37;1.85;;;;;;;22.99;33.18;99499.66;1809286;78;22694;-42
2021/05/11 17:42:45;;;;;;;6.62;1.98;;;;;;;22.75;33.38;99503.28;1783902;80;20972;-42
2021/05/11 17:46:04;;;;;;;7.53;2.02;;;;;;;22.54;33.60;99499.72;1510079;91;22274;-42
2021/05/11 17:48:41;;;;;;;7.20;2.40;;;;;;;22.54;33.51;99501.88;1516552;90;22722;-42
2021/05/11 17:51:17;;;;;;;6.07;2.13;;;;;;;22.37;33.94;99510.03;1543912;88;27686;-42
2021/05/11 17:54:04;;;;;;;6.10;2.42;;;;;;;22.63;34.11;99504.00;1513795;90;21475;-42
2021/05/11 17:56:49;;;;;;;3.17;1.90;;;;;;;22.56;34.19;99513.86;1500507;91;21148;-42
2021/05/11 17:59:32;;;;;;;5.10;2.10;;;;;;;22.32;34.59;99511.94;1519198;90;22794;-42
2021/05/11 18:02:12;;;;;;;4.75;2.15;;;;;;;22.20;35.52;99509.12;1506335;91;22793;-43
2021/05/11 18:05:08;;;;;;;5.37;2.20;;;;;;;22.07;35.06;99508.44;1548223;87;22651;-42
2021/05/11 18:07:58;;;;;;;6.55;2.85;;;;;;;21.89;35.18;99506.70;1524642;90;22761;-42
2021/05/11 18:10:34;;;;;;;6.17;2.40;;;;;;;21.78;35.02;99504.05;1524575;90;22781;-42
2021/05/11 18:13:09;;;;;;;6.35;2.77;;;;;;;21.68;35.35;99500.34;1538492;88;22844;-42
2021/05/11 18:15:54;;;;;;;6.20;2.40;;;;;;;21.57;35.86;99501.19;1519975;90;20976;-42
2021/05/11 18:18:31;;;;;;;5.87;2.40;;;;;;;21.47;35.94;99498.85;1525516;90;23264;-42